Manor, TX (78653)

9:27 AM CDT on July 06, 2015 (GMT -0500)
Shadowglen | | Change Station
CLOSE
Current Station
Personal Weather Station
Location: Manor, TX
Elevation: 541 ft
Nearby Weather Stations

Elev 541 ft 30.36 °N, 97.54 °W | Updated 1 minute ago

Mostly Cloudy
Mostly Cloudy
81.1 °F
Feels Like 87 °F
N
9.0
Wind Variable Wind from North
Gusts 15.0 mph

Today
High -- | Low -- °F
--% Chance of Precip.
Yesterday
High -- | Low -- °F
Precip. -- in
6:33 AM 8:35 PM
Waning Gibbous, 75% visible
Pressure 30.07 in
Visibility 8.0 miles
Clouds Mostly Cloudy 1800 ft
Mostly Cloudy 2500 ft
Heat Index 87 °F
Dew Point 75 °F
Humidity 82%
Rainfall 0.00 in
Snow Depth Not available.
UV 2 out of 12
Pollen 2.50 out of 12
Air Quality Not available.
Flu Activity Not available.
METAR KEDC 061415Z AUTO 18012G16KT 8SM BKN018 BKN025 27/23 A3007 RMK AO2

More Conditions Fewer Conditions

Pressure 30.07 in
Visibility 8.0 miles
Clouds Mostly Cloudy 1800 ft
Mostly Cloudy 2500 ft
Heat Index 87 °F
Dew Point 75 °F
Humidity 82%
Rainfall 0.00 in
Snow Depth Not available.
UV 2 out of 12
Pollen 2.50 out of 12
Air Quality Not available.
Flu Activity Not available.
METAR KEDC 061415Z AUTO 18012G16KT 8SM BKN018 BKN025 27/23 A3007 RMK AO2

More Conditions Fewer Conditions

10-Day Weather Forecast

×

Almanac

Astronomy

Jul. 06, 2015 Rise Set
Actual Time
Civil Twilight
Nautical Twilight
Astronomical Twilight
Moon
Length of Visible Light
Length of Day
Tomorrow will be .
, % of the Moon is Illuminated

Today's Extremes

State Highs State Lows

Community

WunderPhotos

Upload Photos

1,835,559 photos uploaded!

WunderBlogs® & News

Nearby

Air Quality

  Air Quality AQ Index Pollutant
Not available.

Snow Depth

Station Depth Elevation

Earthquake Activity

City Distance Mag. Time & Date
Minimum magnitude displayed is 2.5.

Coastal Water Temperatures

Place Temperature

Stations

Nearby Weather Stations

Station Location Temp. Windchill Dew Point Humidity Wind Precip. Elev Updated Type